Time;durP1;ratioP1;P1;durP2;ratioP2;P2;SDS_P1;SDS_P2;PMS_P1;PMS_P2;Temp;Humidity;BMP_temperature;BMP_pressure;BME280_temperature;BME280_humidity;BME280_pressure;Samples;Min_cycle;Max_cycle;Signal;HPM_P1;HPM_P2
2022/11/27 05:01:55;;;;;;;;;;;6.10;99.90;;;;;;6076595;22;1382748;-83
2022/11/27 05:04:21;;;;;;;16.83;4.88;;;6.10;99.90;;;;;;6131576;23;19913;-80
2022/11/27 05:06:47;;;;;;;12.82;4.65;;;6.10;99.90;;;;;;6131615;23;20037;-82
2022/11/27 05:09:13;;;;;;;17.48;5.35;;;6.10;99.90;;;;;;6158081;23;20085;-82
2022/11/27 05:11:38;;;;;;;16.10;5.53;;;6.10;99.90;;;;;;6140471;23;20357;-81
2022/11/27 05:14:21;;;;;;;16.30;5.13;;;6.10;99.90;;;;;;6102486;23;20045;-80
2022/11/27 05:16:50;;;;;;;13.80;5.15;;;6.10;99.90;;;;;;6102484;23;20024;-84
2022/11/27 05:19:17;;;;;;;19.33;4.65;;;6.10;99.90;;;;;;6102105;23;20014;-82
2022/11/27 05:21:43;;;;;;;16.63;5.13;;;6.20;99.90;;;;;;6102075;23;20455;-81
2022/11/27 05:24:09;;;;;;;17.13;5.22;;;6.10;99.90;;;;;;6102205;23;20466;-82
2022/11/27 05:26:35;;;;;;;17.00;5.07;;;6.10;99.90;;;;;;6102259;23;20017;-80
2022/11/27 05:29:01;;;;;;;16.60;6.78;;;6.10;99.90;;;;;;6102209;23;20020;-81
2022/11/27 05:31:27;;;;;;;14.95;5.55;;;6.10;99.90;;;;;;6102218;23;20065;-82
2022/11/27 05:33:53;;;;;;;12.98;4.55;;;6.10;99.90;;;;;;6078040;23;20148;-81
2022/11/27 05:36:19;;;;;;;18.27;5.55;;;6.20;99.90;;;;;;6077892;23;20026;-82
2022/11/27 05:38:44;;;;;;;12.80;4.38;;;6.10;99.90;;;;;;6128440;23;20014;-84
2022/11/27 05:41:10;;;;;;;17.15;5.30;;;6.10;99.90;;;;;;6102116;23;20006;-83
2022/11/27 05:43:36;;;;;;;20.52;4.40;;;6.10;99.90;;;;;;6102276;23;20013;-80
2022/11/27 05:46:09;;;;;;;12.15;4.63;;;6.10;99.90;;;;;;6128139;23;20403;-81
2022/11/27 05:48:36;;;;;;;21.10;5.30;;;6.10;99.90;;;;;;6128372;23;20018;-84
2022/11/27 05:51:02;;;;;;;16.02;5.43;;;6.10;99.90;;;;;;6128004;23;20045;-82
2022/11/27 05:53:27;;;;;;;19.88;5.85;;;6.10;99.90;;;;;;6101763;23;20026;-80
2022/11/27 05:55:53;;;;;;;9.15;4.40;;;6.10;99.90;;;;;;6127669;23;20078;-83
2022/11/27 05:58:19;;;;;;;20.38;6.53;;;6.10;99.90;;;;;;6101869;23;20014;-82
2022/11/27 06:00:45;;;;;;;12.88;4.53;;;6.10;99.90;;;;;;6101544;23;20021;-83
2022/11/27 06:03:11;;;;;;;13.48;4.97;;;6.10;99.90;;;;;;6101802;23;20097;-84
2022/11/27 06:05:40;;;;;;;18.15;4.15;;;6.10;99.90;;;;;;6101966;23;20049;-82
2022/11/27 06:08:06;;;;;;;13.32;4.70;;;6.10;99.90;;;;;;6078024;23;20474;-82
2022/11/27 06:10:32;;;;;;;15.00;5.68;;;6.10;99.90;;;;;;6077623;23;20017;-82
2022/11/27 06:12:58;;;;;;;12.35;4.85;;;6.10;99.90;;;;;;6128048;23;20094;-82
2022/11/27 06:15:23;;;;;;;12.73;4.55;;;6.10;99.90;;;;;;6128057;23;20014;-83
2022/11/27 06:17:49;;;;;;;11.23;4.10;;;6.10;99.90;;;;;;6077962;23;20025;-82
2022/11/27 06:20:15;;;;;;;15.30;5.55;;;6.10;99.90;;;;;;6127611;23;20010;-83
2022/11/27 06:22:41;;;;;;;12.23;4.10;;;6.10;99.90;;;;;;6101767;23;20077;-81
2022/11/27 06:25:07;;;;;;;14.23;4.45;;;6.10;99.90;;;;;;6101365;23;20452;-79
2022/11/27 06:27:34;;;;;;;12.60;3.90;;;6.10;99.90;;;;;;6127394;23;20456;-83
2022/11/27 06:30:01;;;;;;;11.50;4.22;;;6.10;99.90;;;;;;6102745;23;20018;-81
2022/11/27 06:32:27;;;;;;;15.50;4.45;;;6.10;99.90;;;;;;6101414;23;20089;-80
2022/11/27 06:34:52;;;;;;;13.38;5.05;;;6.10;99.90;;;;;;6103595;23;20351;-79
2022/11/27 06:37:18;;;;;;;12.15;3.83;;;6.10;99.90;;;;;;6101496;23;20022;-79
2022/11/27 06:39:43;;;;;;;18.10;5.38;;;6.20;99.90;;;;;;6127529;23;20014;-80
2022/11/27 06:42:09;;;;;;;15.63;3.95;;;6.10;99.90;;;;;;6101202;23;20503;-83
2022/11/27 06:44:35;;;;;;;16.63;5.32;;;6.20;99.90;;;;;;6101103;23;20081;-79
2022/11/27 06:47:01;;;;;;;12.50;4.13;;;6.20;99.90;;;;;;6128234;23;20014;-81
2022/11/27 06:49:26;;;;;;;15.43;4.40;;;6.20;99.90;;;;;;6101650;23;20041;-81
2022/11/27 06:51:52;;;;;;;10.88;4.10;;;6.20;99.90;;;;;;6101309;23;20018;-84
2022/11/27 06:54:17;;;;;;;13.07;4.53;;;6.20;99.90;;;;;;6101106;23;20347;-81
2022/11/27 06:56:43;;;;;;;16.70;4.63;;;6.20;99.90;;;;;;6101040;23;20021;-81
2022/11/27 06:59:14;;;;;;;12.25;3.95;;;6.20;99.90;;;;;;6101438;23;20014;-81
2022/11/27 07:01:41;;;;;;;11.73;4.72;;;6.10;99.90;;;;;;6101512;23;20458;-79
2022/11/27 07:04:12;;;;;;;10.68;4.30;;;6.20;99.90;;;;;;6103832;23;20014;-81
2022/11/27 07:06:39;;;;;;;14.98;4.82;;;6.20;99.90;;;;;;6077396;23;20093;-80
2022/11/27 07:09:05;;;;;;;11.73;4.13;;;6.20;99.90;;;;;;6101277;23;20321;-82
2022/11/27 07:11:32;;;;;;;12.25;4.40;;;6.20;99.90;;;;;;6101410;23;20052;-82
2022/11/27 07:14:00;;;;;;;10.88;4.43;;;6.20;99.90;;;;;;6101066;23;20499;-82
2022/11/27 07:16:27;;;;;;;15.07;4.95;;;6.20;99.90;;;;;;6102231;23;20017;-82
2022/11/27 07:18:56;;;;;;;12.60;3.88;;;6.20;99.90;;;;;;6101183;23;20024;-81
2022/11/27 07:21:21;;;;;;;11.88;4.45;;;6.20;99.90;;;;;;6101083;23;20096;-83
2022/11/27 07:23:47;;;;;;;12.57;3.90;;;6.20;99.90;;;;;;6077137;23;20042;-83
2022/11/27 07:26:18;;;;;;;9.98;4.38;;;6.20;99.90;;;;;;6100704;23;20336;-81
2022/11/27 07:28:45;;;;;;;13.98;4.45;;;6.20;99.90;;;;;;6101043;23;20022;-82
2022/11/27 07:31:13;;;;;;;15.02;5.03;;;6.20;99.90;;;;;;6101047;23;20025;-80
2022/11/27 07:33:39;;;;;;;16.33;4.55;;;6.30;99.90;;;;;;6101280;23;20032;-79
2022/11/27 07:36:13;;;;;;;13.48;4.38;;;6.30;99.90;;;;;;6101541;23;20018;-81
2022/11/27 07:38:39;;;;;;;13.43;4.75;;;6.30;99.90;;;;;;6101594;23;20020;-80
2022/11/27 07:41:06;;;;;;;13.50;4.63;;;6.30;99.90;;;;;;6101027;23;20018;-80
2022/11/27 07:43:33;;;;;;;10.02;4.32;;;6.30;99.90;;;;;;6127376;23;20021;-81
2022/11/27 07:46:05;;;;;;;13.27;5.22;;;6.30;99.90;;;;;;6100733;23;20022;-83
2022/11/27 07:48:31;;;;;;;13.32;4.88;;;6.30;99.90;;;;;;6127448;23;20010;-83
2022/11/27 07:50:57;;;;;;;12.05;4.50;;;6.30;99.90;;;;;;6127121;23;20081;-82
2022/11/27 07:53:22;;;;;;;9.52;4.32;;;6.30;99.90;;;;;;6100933;23;20045;-82
2022/11/27 07:55:48;;;;;;;12.10;4.60;;;6.30;99.90;;;;;;6100812;23;20033;-82
2022/11/27 07:58:14;;;;;;;10.73;4.22;;;6.30;99.90;;;;;;6100630;23;20323;-83
2022/11/27 08:00:39;;;;;;;13.02;4.35;;;6.30;99.90;;;;;;6100630;23;20022;-81
2022/11/27 08:03:05;;;;;;;13.43;4.18;;;6.30;99.90;;;;;;6127250;23;20329;-80
2022/11/27 08:05:33;;;;;;;11.75;5.22;;;6.30;99.90;;;;;;6126843;23;20014;-80
2022/11/27 08:08:00;;;;;;;12.43;4.63;;;6.40;99.90;;;;;;6100842;23;20344;-82
2022/11/27 08:10:26;;;;;;;12.65;4.72;;;6.40;99.90;;;;;;6100832;23;20021;-80
2022/11/27 08:12:51;;;;;;;9.70;4.30;;;6.40;99.90;;;;;;6100486;23;20061;-81
2022/11/27 08:15:17;;;;;;;12.27;5.28;;;6.40;99.90;;;;;;6100702;23;20085;-82
2022/11/27 08:17:43;;;;;;;15.82;5.18;;;6.40;99.90;;;;;;6100576;23;20081;-82
2022/11/27 08:20:09;;;;;;;11.27;5.30;;;6.40;99.90;;;;;;6127129;23;20084;-81
2022/11/27 08:22:36;;;;;;;17.88;5.13;;;6.40;99.90;;;;;;6100691;23;20014;-80
2022/11/27 08:25:02;;;;;;;13.82;4.53;;;6.40;99.90;;;;;;6126932;23;20046;-81
2022/11/27 08:27:31;;;;;;;11.80;4.90;;;6.40;99.90;;;;;;6100810;23;20021;-81
2022/11/27 08:29:58;;;;;;;15.15;4.88;;;6.50;99.90;;;;;;6100434;23;20021;-80
2022/11/27 08:32:23;;;;;;;13.38;5.70;;;6.50;99.90;;;;;;6100618;23;20355;-82
2022/11/27 08:34:49;;;;;;;10.85;4.72;;;6.50;99.90;;;;;;6100862;23;20021;-81
2022/11/27 08:37:15;;;;;;;13.75;5.47;;;6.50;99.90;;;;;;6100957;23;20021;-81
2022/11/27 08:39:40;;;;;;;11.57;4.53;;;6.50;99.90;;;;;;6129008;23;20010;-83
2022/11/27 08:42:06;;;;;;;13.48;5.50;;;6.50;99.90;;;;;;6102845;23;20444;-80
2022/11/27 08:44:31;;;;;;;14.98;4.85;;;6.50;99.90;;;;;;6128765;23;20010;-80
2022/11/27 08:46:57;;;;;;;17.67;5.18;;;6.50;99.90;;;;;;6102860;23;20032;-80
2022/11/27 08:49:23;;;;;;;10.68;4.82;;;6.50;99.90;;;;;;6102662;23;20070;-83
2022/11/27 08:51:49;;;;;;;15.38;4.75;;;6.50;99.90;;;;;;6078543;23;20089;-82
2022/11/27 08:54:14;;;;;;;13.30;5.55;;;6.50;99.90;;;;;;6102685;23;20073;-81
2022/11/27 08:56:40;;;;;;;15.20;5.72;;;6.50;99.90;;;;;;6102603;23;20018;-81
2022/11/27 08:59:05;;;;;;;17.08;5.30;;;6.50;99.90;;;;;;6102527;23;20021;-81
2022/11/27 09:01:32;;;;;;;11.38;5.35;;;6.50;99.90;;;;;;6102526;23;20073;-82
2022/11/27 09:03:58;;;;;;;13.38;5.35;;;6.50;99.90;;;;;;6102738;23;20014;-83
2022/11/27 09:06:27;;;;;;;13.82;5.88;;;6.50;99.90;;;;;;6102868;23;20037;-80
2022/11/27 09:08:55;;;;;;;15.35;5.38;;;6.50;99.90;;;;;;6079012;23;20027;-82
2022/11/27 09:11:20;;;;;;;17.13;5.63;;;6.50;99.90;;;;;;6102248;23;20018;-82
2022/11/27 09:13:46;;;;;;;15.57;5.88;;;6.50;99.90;;;;;;6128498;23;20068;-82
2022/11/27 09:16:15;;;;;;;15.70;6.03;;;6.50;99.90;;;;;;6102154;23;20471;-82
2022/11/27 09:18:44;;;;;;;14.82;6.50;;;6.50;99.90;;;;;;6078349;23;20048;-82
2022/11/27 09:21:12;;;;;;;16.45;6.28;;;6.50;99.90;;;;;;6102042;23;20041;-82
2022/11/27 09:23:38;;;;;;;17.98;6.05;;;6.40;99.90;;;;;;6128169;23;20005;-82
2022/11/27 09:26:10;;;;;;;19.60;6.57;;;6.40;99.90;;;;;;6102021;23;20020;-82
2022/11/27 09:28:37;;;;;;;17.60;7.35;;;6.40;99.90;;;;;;6102035;23;20018;-80
2022/11/27 09:31:03;;;;;;;17.42;7.03;;;6.40;99.90;;;;;;6102014;23;20319;-81
2022/11/27 09:33:31;;;;;;;16.75;6.38;;;6.40;99.90;;;;;;6127985;23;20062;-81
2022/11/27 09:35:56;;;;;;;16.48;6.40;;;6.30;99.90;;;;;;6101850;23;20348;-84
2022/11/27 09:38:22;;;;;;;19.45;7.30;;;6.30;99.90;;;;;;6128636;23;20021;-83
2022/11/27 09:41:10;;;;;;;18.70;6.93;;;6.30;99.90;;;;;;6102661;23;20093;-82
2022/11/27 09:43:56;;;;;;;18.85;7.03;;;6.30;99.90;;;;;;6129041;23;20441;-82
2022/11/27 09:46:30;;;;;;;22.48;7.65;;;6.30;99.90;;;;;;6129493;23;20049;-83
2022/11/27 09:48:59;;;;;;;17.75;7.45;;;6.30;99.90;;;;;;6103043;23;20014;-83
2022/11/27 09:51:39;;;;;;;19.38;7.13;;;6.30;99.90;;;;;;6102994;23;20056;-84
2022/11/27 09:54:19;;;;;;;20.73;7.50;;;6.20;99.90;;;;;;6102689;23;20081;-85
2022/11/27 09:56:49;;;;;;;17.55;7.70;;;6.30;99.90;;;;;;6128193;23;20010;-82
2022/11/27 09:59:18;;;;;;;22.15;7.82;;;6.30;99.90;;;;;;6102365;23;20013;-81
2022/11/27 10:01:44;;;;;;;24.25;9.63;;;6.30;99.90;;;;;;6102153;23;20014;-83
2022/11/27 10:04:15;;;;;;;18.17;7.22;;;6.30;99.90;;;;;;6102744;23;20042;-81
2022/11/27 10:07:08;;;;;;;18.65;7.55;;;6.30;99.90;;;;;;6110780;23;20014;-76
2022/11/27 10:10:06;;;;;;;21.88;7.65;;;6.30;99.90;;;;;;6111565;23;20029;-81
2022/11/27 10:12:58;;;;;;;19.55;7.85;;;6.30;99.90;;;;;;6059082;23;20036;-82
2022/11/27 10:15:36;;;;;;;20.33;8.05;;;6.30;99.90;;;;;;6102032;23;20345;-83
2022/11/27 10:18:09;;;;;;;19.40;8.27;;;6.30;99.90;;;;;;6103067;23;20021;-82
2022/11/27 10:20:51;;;;;;;23.02;8.38;;;6.30;99.90;;;;;;6101565;23;20037;-82
2022/11/27 10:23:52;;;;;;;18.67;7.78;;;6.30;99.90;;;;;;6101739;23;20081;-82
2022/11/27 10:26:23;;;;;;;24.20;8.77;;;6.30;99.90;;;;;;6057879;23;20025;-83
2022/11/27 10:29:02;;;;;;;18.70;7.05;;;6.40;99.90;;;;;;6101823;23;20049;-84
2022/11/27 10:31:48;;;;;;;19.35;8.13;;;6.40;99.90;;;;;;6127714;23;20025;-83
2022/11/27 10:34:37;;;;;;;22.23;7.25;;;6.40;99.90;;;;;;6101804;23;20028;-81
2022/11/27 10:37:10;;;;;;;19.58;7.57;;;6.40;99.90;;;;;;6127263;23;20037;-85
2022/11/27 10:39:41;;;;;;;20.48;7.97;;;6.40;99.90;;;;;;6101604;23;20014;-82
2022/11/27 10:42:20;;;;;;;19.85;7.40;;;6.40;99.90;;;;;;6127452;23;20014;-82
2022/11/27 10:45:02;;;;;;;20.40;7.32;;;6.40;99.90;;;;;;6077532;23;20028;-84
2022/11/27 10:47:28;;;;;;;19.23;7.68;;;6.40;99.90;;;;;;6127259;23;20013;-83
2022/11/27 10:49:56;;;;;;;21.65;8.30;;;6.40;99.90;;;;;;6101551;23;20014;-83
2022/11/27 10:52:22;;;;;;;24.77;10.05;;;6.40;99.90;;;;;;6101491;23;20010;-82
2022/11/27 10:55:01;;;;;;;22.08;9.05;;;6.40;99.90;;;;;;6128468;23;20384;-83
2022/11/27 10:57:33;;;;;;;24.23;9.93;;;6.40;99.90;;;;;;6101801;23;20018;-84
2022/11/27 11:00:14;;;;;;;19.13;7.95;;;6.40;99.90;;;;;;6101283;23;20018;-81
2022/11/27 11:02:40;;;;;;;22.48;8.85;;;6.40;99.90;;;;;;6101205;23;20062;-82
2022/11/27 11:05:09;;;;;;;25.67;9.52;;;6.40;99.90;;;;;;6127874;23;20487;-84
2022/11/27 11:07:35;;;;;;;19.10;8.02;;;6.40;99.90;;;;;;6101435;23;20098;-82
2022/11/27 11:10:01;;;;;;;20.05;7.70;;;6.40;99.90;;;;;;6101374;23;20045;-83
2022/11/27 11:12:26;;;;;;;19.63;8.77;;;6.50;99.90;;;;;;6101271;23;20018;-83
2022/11/27 11:14:57;;;;;;;17.55;8.43;;;6.40;99.90;;;;;;6101236;23;20010;-80
2022/11/27 11:17:26;;;;;;;25.27;9.23;;;6.40;99.90;;;;;;6077612;23;20041;-80
2022/11/27 11:19:52;;;;;;;21.58;9.23;;;6.40;99.90;;;;;;6127341;23;20014;-82
2022/11/27 11:22:18;;;;;;;18.05;8.38;;;6.50;99.90;;;;;;6076968;23;20017;-81
2022/11/27 11:24:51;;;;;;;20.10;8.55;;;6.40;99.90;;;;;;6101215;23;20440;-82
2022/11/27 11:27:27;;;;;;;19.13;8.73;;;6.40;99.90;;;;;;6127853;23;20440;-82
2022/11/27 11:30:02;;;;;;;18.67;7.80;;;6.50;99.90;;;;;;6101530;23;20041;-83
2022/11/27 11:32:37;;;;;;;20.10;7.75;;;6.50;99.90;;;;;;6101157;23;20022;-83
2022/11/27 11:35:08;;;;;;;24.67;8.73;;;6.50;99.90;;;;;;6101060;23;20436;-82
2022/11/27 11:37:38;;;;;;;19.85;7.97;;;6.50;99.90;;;;;;6101431;23;20364;-83
2022/11/27 11:40:11;;;;;;;19.48;8.02;;;6.50;99.90;;;;;;6127553;23;20340;-83
2022/11/27 11:42:37;;;;;;;16.80;7.65;;;6.50;99.90;;;;;;6102329;23;20018;-82
2022/11/27 11:45:06;;;;;;;17.83;7.28;;;6.60;99.90;;;;;;6100939;23;20463;-82
2022/11/27 11:47:31;;;;;;;20.50;7.93;;;6.60;99.90;;;;;;6076992;23;20464;-82
2022/11/27 11:49:57;;;;;;;17.75;7.80;;;6.60;99.90;;;;;;6077160;23;20014;-83
2022/11/27 11:52:29;;;;;;;19.15;8.10;;;6.60;99.90;;;;;;6126766;23;20010;-82
2022/11/27 11:55:21;;;;;;;18.33;7.78;;;6.60;99.90;;;;;;6127557;23;20403;-82
2022/11/27 11:58:09;;;;;;;18.52;7.55;;;6.60;99.90;;;;;;6101051;23;20061;-82
2022/11/27 12:00:45;;;;;;;23.90;8.35;;;6.60;99.90;;;;;;6126402;23;21822;-83
2022/11/27 12:03:34;;;;;;;19.60;8.45;;;6.60;99.90;;;;;;6126880;23;20332;-82
2022/11/27 12:06:06;;;;;;;19.98;8.15;;;6.60;99.90;;;;;;6101865;23;20049;-83
2022/11/27 12:08:37;;;;;;;13.05;7.07;;;6.60;99.90;;;;;;6100697;23;20025;-82
2022/11/27 12:11:14;;;;;;;17.38;7.65;;;6.70;99.90;;;;;;6100538;23;20344;-82
2022/11/27 12:14:10;;;;;;;16.65;7.75;;;6.70;99.90;;;;;;6100441;23;20022;-82
2022/11/27 12:16:48;;;;;;;17.25;7.75;;;6.70;99.90;;;;;;6100628;23;20013;-81
2022/11/27 12:19:37;;;;;;;21.13;8.32;;;6.70;99.90;;;;;;6100590;23;20023;-81
2022/11/27 12:22:12;;;;;;;18.35;7.65;;;6.70;99.90;;;;;;6100508;23;20014;-83
2022/11/27 12:24:58;;;;;;;16.83;7.53;;;6.80;99.90;;;;;;6126763;23;20306;-81
2022/11/27 12:27:31;;;;;;;21.15;8.45;;;6.80;99.90;;;;;;6101085;23;20451;-83
2022/11/27 12:30:21;;;;;;;18.20;9.23;;;6.80;99.90;;;;;;6100678;23;20456;-81
2022/11/27 12:32:49;;;;;;;17.73;7.50;;;6.80;99.90;;;;;;6076443;23;20445;-81
2022/11/27 12:35:31;;;;;;;18.40;8.02;;;6.80;99.90;;;;;;6100240;23;20021;-83
2022/11/27 12:38:27;;;;;;;20.20;9.70;;;6.80;99.90;;;;;;6076454;23;20029;-83
2022/11/27 12:41:10;;;;;;;18.17;7.80;;;6.80;99.90;;;;;;6100425;23;20321;-84
2022/11/27 12:43:54;;;;;;;20.30;7.35;;;6.70;99.90;;;;;;6100768;23;20006;-82
2022/11/27 12:46:40;;;;;;;16.77;8.13;;;6.80;99.90;;;;;;6100502;23;20025;-81
2022/11/27 12:49:31;;;;;;;16.90;8.07;;;6.70;99.90;;;;;;6076706;23;20018;-82
2022/11/27 12:52:04;;;;;;;19.48;8.10;;;6.70;99.90;;;;;;6100489;23;20021;-84
2022/11/27 12:54:58;;;;;;;16.95;7.93;;;6.70;99.90;;;;;;6100626;23;20289;-80
2022/11/27 12:57:47;;;;;;;16.23;8.05;;;6.70;99.90;;;;;;6126829;23;20010;-82
2022/11/27 13:00:18;;;;;;;16.45;7.97;;;6.70;99.90;;;;;;6100231;23;20014;-82
2022/11/27 13:03:17;;;;;;;19.10;8.05;;;6.70;99.90;;;;;;6126060;23;20041;-82
2022/11/27 13:06:12;;;;;;;20.83;8.77;;;6.70;99.90;;;;;;6100542;23;20014;-82
2022/11/27 13:08:54;;;;;;;20.65;8.32;;;6.70;99.90;;;;;;6090186;23;20017;-84
2022/11/27 13:11:25;;;;;;;19.92;8.30;;;6.70;99.90;;;;;;6126198;23;20017;-80
2022/11/27 13:14:03;;;;;;;15.25;7.90;;;6.70;99.90;;;;;;6100613;23;20041;-85
2022/11/27 13:16:37;;;;;;;15.40;7.88;;;6.70;99.90;;;;;;6126528;23;20329;-82
2022/11/27 13:19:24;;;;;;;18.25;8.27;;;6.70;99.90;;;;;;6126046;23;20448;-84
2022/11/27 13:21:51;;;;;;;18.35;8.38;;;6.70;99.90;;;;;;6126502;23;20013;-81
2022/11/27 13:24:18;;;;;;;19.40;8.52;;;6.70;99.90;;;;;;6127683;23;20012;-84
2022/11/27 13:27:05;;;;;;;23.33;7.78;;;6.70;99.90;;;;;;6101961;23;20069;-81
2022/11/27 13:29:49;;;;;;;17.52;7.05;;;6.70;99.90;;;;;;6107441;23;20093;-81
2022/11/27 13:32:30;;;;;;;17.85;7.40;;;6.70;99.90;;;;;;6102098;23;20058;-83
2022/11/27 13:34:58;;;;;;;18.27;7.63;;;6.70;99.90;;;;;;6128206;23;20017;-82
2022/11/27 13:37:38;;;;;;;18.98;7.43;;;6.80;99.90;;;;;;6128265;23;20081;-83
2022/11/27 13:40:04;;;;;;;18.27;8.65;;;6.70;99.90;;;;;;6128088;23;20061;-81
2022/11/27 13:42:35;;;;;;;17.27;8.10;;;6.70;99.90;;;;;;6101615;23;20017;-83
2022/11/27 13:45:05;;;;;;;19.83;9.35;;;6.70;99.90;;;;;;6128125;23;20014;-84
2022/11/27 13:47:41;;;;;;;18.33;8.45;;;6.70;99.90;;;;;;6127918;23;20010;-83
2022/11/27 13:50:12;;;;;;;15.75;8.15;;;6.70;99.90;;;;;;6128212;23;20021;-82
2022/11/27 13:52:59;;;;;;;17.15;7.70;;;6.70;99.90;;;;;;6101864;23;20014;-85
2022/11/27 13:55:30;;;;;;;16.10;7.68;;;6.70;99.90;;;;;;6101849;23;20025;-84
2022/11/27 13:57:58;;;;;;;17.52;8.05;;;6.70;99.90;;;;;;6128082;23;20017;-81
2022/11/27 14:00:42;;;;;;;16.50;7.90;;;6.70;99.90;;;;;;6102957;23;20017;-82
2022/11/27 14:03:26;;;;;;;16.45;7.53;;;6.70;99.90;;;;;;6102084;23;20014;-84
2022/11/27 14:05:52;;;;;;;17.98;8.10;;;6.70;99.90;;;;;;6128363;23;20018;-82
2022/11/27 14:08:20;;;;;;;21.92;8.57;;;6.70;99.90;;;;;;6101779;23;20025;-82
2022/11/27 14:11:13;;;;;;;17.35;8.48;;;6.60;99.90;;;;;;6078038;23;20026;-82
2022/11/27 14:13:42;;;;;;;14.73;7.18;;;6.60;99.90;;;;;;6101895;23;20461;-83
2022/11/27 14:16:30;;;;;;;19.08;8.15;;;6.70;99.90;;;;;;6101632;23;20025;-82
2022/11/27 14:19:21;;;;;;;13.90;7.95;;;6.60;99.90;;;;;;6102238;23;20014;-83
2022/11/27 14:21:48;;;;;;;18.88;8.68;;;6.60;99.90;;;;;;6101800;23;20010;-82
2022/11/27 14:24:35;;;;;;;15.73;7.88;;;6.50;99.90;;;;;;6101596;23;20014;-83
2022/11/27 14:27:14;;;;;;;15.68;8.13;;;6.60;99.90;;;;;;6101964;23;20018;-83
2022/11/27 14:29:40;;;;;;;22.13;8.73;;;6.60;99.90;;;;;;6128113;23;20014;-81
2022/11/27 14:32:12;;;;;;;17.80;7.72;;;6.60;99.90;;;;;;6101863;23;20467;-84
2022/11/27 14:34:38;;;;;;;18.33;8.30;;;6.60;99.90;;;;;;6101530;23;20018;-82
2022/11/27 14:37:04;;;;;;;20.25;8.48;;;6.60;99.90;;;;;;6128396;23;20013;-84
2022/11/27 14:39:36;;;;;;;20.20;8.00;;;6.60;99.90;;;;;;6102128;23;20021;-82
2022/11/27 14:42:17;;;;;;;17.23;8.40;;;6.60;99.90;;;;;;6109638;23;20018;-77
2022/11/27 14:44:43;;;;;;;19.02;7.88;;;6.50;99.90;;;;;;6115577;23;20380;-82
2022/11/27 14:47:21;;;;;;;18.77;8.32;;;6.50;99.90;;;;;;6130050;23;20137;-84
2022/11/27 14:49:53;;;;;;;18.77;7.82;;;6.60;99.90;;;;;;6128417;23;20020;-84
2022/11/27 14:52:20;;;;;;;16.67;8.45;;;6.60;99.90;;;;;;6101990;23;20343;-83
2022/11/27 14:54:46;;;;;;;14.35;7.53;;;6.50;99.90;;;;;;6102449;23;20479;-81
2022/11/27 14:57:38;;;;;;;15.45;7.72;;;6.50;99.90;;;;;;6102003;23;20021;-83
2022/11/27 15:00:15;;;;;;;19.15;7.85;;;6.50;99.90;;;;;;6073580;23;20388;-84
2022/11/27 15:02:42;;;;;;;18.27;7.82;;;6.50;99.90;;;;;;6101403;23;20138;-82
2022/11/27 15:05:17;;;;;;;21.30;7.93;;;6.50;99.90;;;;;;6102085;23;20021;-82
2022/11/27 15:07:43;;;;;;;16.90;7.50;;;6.60;99.90;;;;;;6101845;23;20014;-82
2022/11/27 15:10:27;;;;;;;14.75;7.82;;;6.60;99.90;;;;;;6101826;23;20022;-83
2022/11/27 15:12:54;;;;;;;17.25;7.57;;;6.60;99.90;;;;;;6101453;23;20039;-81
2022/11/27 15:15:26;;;;;;;17.85;8.15;;;6.60;99.90;;;;;;6102728;23;20065;-86
2022/11/27 15:18:01;;;;;;;16.08;8.10;;;6.60;99.90;;;;;;6127790;23;20523;-81
2022/11/27 15:20:41;;;;;;;14.23;7.68;;;6.50;99.90;;;;;;6101686;23;20024;-83
2022/11/27 15:23:18;;;;;;;18.95;8.32;;;6.60;99.90;;;;;;6101515;23;20014;-84
2022/11/27 15:26:00;;;;;;;21.42;8.68;;;6.60;99.90;;;;;;6101040;23;20511;-81
2022/11/27 15:28:42;;;;;;;17.30;8.35;;;6.50;99.90;;;;;;6127700;23;20366;-81
2022/11/27 15:31:27;;;;;;;19.48;8.38;;;6.60;99.90;;;;;;6076928;23;20022;-81
2022/11/27 15:33:58;;;;;;;14.85;7.70;;;6.60;99.90;;;;;;6101076;23;20045;-83
2022/11/27 15:36:25;;;;;;;15.13;7.07;;;6.50;99.90;;;;;;6127638;23;20018;-83
2022/11/27 15:38:51;;;;;;;18.67;8.48;;;6.60;99.90;;;;;;6127260;23;20018;-81
2022/11/27 15:41:28;;;;;;;17.67;7.97;;;6.60;99.90;;;;;;6127189;23;20488;-83
2022/11/27 15:43:55;;;;;;;17.13;7.85;;;6.50;99.90;;;;;;6101899;23;20010;-82
2022/11/27 15:46:29;;;;;;;14.95;7.95;;;6.60;99.90;;;;;;6076824;23;20045;-81
2022/11/27 15:48:55;;;;;;;16.10;8.05;;;6.60;99.90;;;;;;6100846;23;20022;-82
2022/11/27 15:51:21;;;;;;;15.70;8.10;;;6.60;99.90;;;;;;6100779;23;20471;-82
2022/11/27 15:53:47;;;;;;;16.67;7.53;;;6.60;99.90;;;;;;6100562;23;20018;-82
2022/11/27 15:56:14;;;;;;;15.38;7.63;;;6.60;99.90;;;;;;6126646;23;20041;-81
2022/11/27 15:58:41;;;;;;;14.75;7.78;;;6.60;99.90;;;;;;6127061;23;20010;-81
2022/11/27 16:01:07;;;;;;;14.38;7.63;;;6.60;99.90;;;;;;6126409;23;20016;-84
2022/11/27 16:03:33;;;;;;;13.98;7.75;;;6.60;99.90;;;;;;6100928;23;20022;-83
2022/11/27 16:06:03;;;;;;;17.42;8.95;;;6.60;99.90;;;;;;6100932;23;20024;-81
2022/11/27 16:08:29;;;;;;;15.20;7.43;;;6.60;99.90;;;;;;6100981;23;20397;-82
2022/11/27 16:10:59;;;;;;;15.88;8.45;;;6.70;99.90;;;;;;6100430;23;20050;-82
2022/11/27 16:13:25;;;;;;;16.30;8.05;;;6.60;99.90;;;;;;6100975;23;20022;-84
2022/11/27 16:15:50;;;;;;;17.95;8.30;;;6.70;99.90;;;;;;6100746;23;20089;-83
2022/11/27 16:18:16;;;;;;;15.70;7.13;;;6.70;99.90;;;;;;6126931;23;20368;-83
2022/11/27 16:20:42;;;;;;;17.27;6.72;;;6.70;99.90;;;;;;6100419;23;20049;-82
2022/11/27 16:23:07;;;;;;;16.60;8.52;;;6.60;99.90;;;;;;6076829;23;20046;-81
2022/11/27 16:25:33;;;;;;;20.20;8.10;;;6.70;99.90;;;;;;6100698;23;20025;-82
2022/11/27 16:27:58;;;;;;;18.50;7.95;;;6.70;99.90;;;;;;6100880;23;20029;-84
2022/11/27 16:30:24;;;;;;;13.43;7.10;;;6.70;99.90;;;;;;6100455;23;20013;-82
2022/11/27 16:32:52;;;;;;;17.95;7.97;;;6.70;99.90;;;;;;6100733;23;20455;-82
2022/11/27 16:35:18;;;;;;;13.82;7.30;;;6.70;99.90;;;;;;6100643;23;20133;-83
2022/11/27 16:37:44;;;;;;;15.25;8.10;;;6.70;99.90;;;;;;6126505;23;20481;-80
2022/11/27 16:40:10;;;;;;;14.02;7.85;;;6.70;99.90;;;;;;6126442;23;20013;-81
2022/11/27 16:42:36;;;;;;;15.18;7.70;;;6.70;99.90;;;;;;6100272;23;20510;-81
2022/11/27 16:45:02;;;;;;;16.05;8.05;;;6.70;99.90;;;;;;6100551;23;20018;-84
2022/11/27 16:47:29;;;;;;;19.33;8.10;;;6.70;99.90;;;;;;6100574;23;20017;-82
2022/11/27 16:49:54;;;;;;;17.80;7.82;;;6.70;99.90;;;;;;6076511;23;20010;-81
2022/11/27 16:52:20;;;;;;;13.88;7.80;;;6.70;99.90;;;;;;6100416;23;20519;-84
2022/11/27 16:54:45;;;;;;;18.38;7.90;;;6.70;99.90;;;;;;6100478;23;20033;-82
2022/11/27 16:57:11;;;;;;;15.25;7.13;;;6.70;99.90;;;;;;6076341;23;20349;-81
2022/11/27 16:59:37;;;;;;;16.77;8.02;;;6.70;99.90;;;;;;6102316;23;20010;-83
2022/11/27 17:02:03;;;;;;;15.15;7.60;;;6.70;99.90;;;;;;6102072;23;20014;-82
2022/11/27 17:04:29;;;;;;;18.42;8.15;;;6.70;99.90;;;;;;6128445;23;20013;-84
2022/11/27 17:06:55;;;;;;;14.05;7.63;;;6.80;99.90;;;;;;6102631;23;20447;-83
2022/11/27 17:09:23;;;;;;;15.05;7.90;;;6.70;99.90;;;;;;6102240;23;20466;-82
2022/11/27 17:11:49;;;;;;;16.80;7.90;;;6.70;99.90;;;;;;6078172;23;20452;-81
2022/11/27 17:14:15;;;;;;;15.65;7.97;;;6.70;99.90;;;;;;6078271;23;20013;-81
2022/11/27 17:16:41;;;;;;;18.40;8.68;;;6.80;99.90;;;;;;6102110;23;20054;-83
2022/11/27 17:19:11;;;;;;;15.27;8.15;;;6.80;99.90;;;;;;6078275;23;20021;-81
2022/11/27 17:21:36;;;;;;;15.18;7.38;;;6.70;99.90;;;;;;6102592;23;20317;-82
2022/11/27 17:24:10;;;;;;;15.20;7.80;;;6.80;99.90;;;;;;6078004;23;20065;-84
2022/11/27 17:26:41;;;;;;;15.45;8.07;;;6.70;99.90;;;;;;6102048;23;20020;-82
2022/11/27 17:29:15;;;;;;;12.75;7.80;;;6.80;99.90;;;;;;6102170;23;20029;-81
2022/11/27 17:31:41;;;;;;;19.42;9.57;;;6.80;99.90;;;;;;6102070;23;20024;-84
2022/11/27 17:34:09;;;;;;;16.42;8.50;;;6.80;99.90;;;;;;6101843;23;20014;-84
2022/11/27 17:36:35;;;;;;;16.77;8.45;;;6.80;99.90;;;;;;6101788;23;20018;-84
2022/11/27 17:39:02;;;;;;;17.00;8.50;;;6.80;99.90;;;;;;6128142;23;20021;-80
2022/11/27 17:41:28;;;;;;;16.58;8.20;;;6.80;99.90;;;;;;6102349;23;20024;-82
2022/11/27 17:43:53;;;;;;;15.45;7.90;;;6.80;99.90;;;;;;6128449;23;20484;-83
2022/11/27 17:46:22;;;;;;;16.20;7.75;;;6.70;99.90;;;;;;6102256;23;20014;-82
2022/11/27 17:48:49;;;;;;;17.08;8.68;;;6.80;99.90;;;;;;6102180;23;20076;-83
2022/11/27 17:51:15;;;;;;;18.92;8.50;;;6.80;99.90;;;;;;6127897;23;20013;-82
2022/11/27 17:53:40;;;;;;;18.17;8.88;;;6.80;99.90;;;;;;6101839;23;20014;-82
2022/11/27 17:56:09;;;;;;;15.43;8.32;;;6.80;99.90;;;;;;6102122;23;20014;-82
2022/11/27 17:58:35;;;;;;;18.30;7.90;;;6.80;99.90;;;;;;6102166;23;20020;-80
2022/11/27 18:01:02;;;;;;;17.70;8.45;;;6.80;99.90;;;;;;6102578;23;20457;-81
2022/11/27 18:03:28;;;;;;;16.38;8.63;;;6.80;99.90;;;;;;6078666;23;20097;-84
2022/11/27 18:05:54;;;;;;;16.88;8.60;;;6.80;99.90;;;;;;6102040;23;20045;-82
2022/11/27 18:08:19;;;;;;;17.67;7.88;;;6.80;99.90;;;;;;6101781;23;20045;-80